Auckland, New Zealand

3:12 AM NZDT on January 29, 2015 (GMT +1300)
Mangere Bridge | Change Station
CLOSE
Current Station
Personal Weather Station
Location: Manukau, Auckland
Elevation: 52 ft
Nearby Weather Stations

Elev 52 ft 36.94 °S, 174.77 °E | Updated 5 seconds ago

Clear
Clear
65.7 °F
Feels Like 65.7 °F
N
1.0
Wind Variable Wind from SSE
Gusts 5.0 mph

Today
High -- | Low -- °F
--% Chance of Precip.
Yesterday
High -- | Low -- °F
Precip. -- in
6:31 AM 8:35 PM
Waxing Gibbous, 65% visible
Pressure 29.83 in
Visibility 6.2 miles
Clouds
Dew Point 61 °F
Humidity 86%
Rainfall 0.00 in
Snow Depth Not available.
UV Not available.
Pollen Not available.
Air Quality Not available.
Flu Activity Not available.
METAR NZAA 281400Z AUTO 15007KT 9999 NCD 19/16 Q1010 NOSIG

More Conditions Fewer Conditions

Pressure 29.83 in
Visibility 6.2 miles
Clouds
Dew Point 61 °F
Humidity 86%
Rainfall 0.00 in
Snow Depth Not available.
UV Not available.
Pollen Not available.
Air Quality Not available.
Flu Activity Not available.
METAR NZAA 281400Z AUTO 15007KT 9999 NCD 19/16 Q1010 NOSIG

More Conditions Fewer Conditions

10-Day Weather Forecast

Almanac

Astronomy

Jan. 29, 2015 Rise Set
Actual Time
Civil Twilight
Nautical Twilight
Astronomical Twilight
Moon
Length of Visible Light
Length of Day
Tomorrow will be .
, % of the Moon is Illuminated

Today's Extremes

Country Highs Country Lows

Community

WunderPhotos

Upload Photos

1,791,148 photos uploaded!

WunderBlogs® & News

Nearby

Air Quality

  Air Quality AQ Index Pollutant
Not available.

Snow Depth

Station Depth Elevation

Earthquake Activity

City Distance Mag. Time & Date
Minimum magnitude displayed is 2.5.

Coastal Water Temperatures

Place Temperature

Nearby Weather Stations